sensor_id;sensor_type;location;lat;lon;timestamp;pressure;altitude;pressure_sealevel;temperature;humidity
33265;BME280;31404;53.974;-1.086;2023-04-15T00:00:35;101118.12;;;10.22;81.61
33265;BME280;31404;53.974;-1.086;2023-04-15T00:05:35;101120.31;;;9.72;83.41
33265;BME280;31404;53.974;-1.086;2023-04-15T00:10:35;101121.57;;;9.97;82.99
33265;BME280;31404;53.974;-1.086;2023-04-15T00:15:35;101130.49;;;9.96;82.87
33265;BME280;31404;53.974;-1.086;2023-04-15T00:20:35;101135.83;;;9.55;83.74
33265;BME280;31404;53.974;-1.086;2023-04-15T00:25:35;101141.85;;;9.63;82.54
33265;BME280;31404;53.974;-1.086;2023-04-15T00:30:45;101147.29;;;9.31;85.01
33265;BME280;31404;53.974;-1.086;2023-04-15T00:35:35;101151.72;;;9.47;84.13
33265;BME280;31404;53.974;-1.086;2023-04-15T00:40:35;101163.24;;;10.00;82.72
33265;BME280;31404;53.974;-1.086;2023-04-15T00:45:35;101167.98;;;9.86;83.20
33265;BME280;31404;53.974;-1.086;2023-04-15T00:50:35;101172.59;;;9.97;83.01
33265;BME280;31404;53.974;-1.086;2023-04-15T00:55:35;101179.78;;;9.67;83.75
33265;BME280;31404;53.974;-1.086;2023-04-15T01:00:35;101183.61;;;10.45;81.36
33265;BME280;31404;53.974;-1.086;2023-04-15T01:05:36;101190.38;;;10.36;81.45
33265;BME280;31404;53.974;-1.086;2023-04-15T01:10:35;101195.35;;;10.57;80.51
33265;BME280;31404;53.974;-1.086;2023-04-15T01:15:35;101193.34;;;9.92;81.86
33265;BME280;31404;53.974;-1.086;2023-04-15T01:20:36;101197.89;;;10.13;81.32
33265;BME280;31404;53.974;-1.086;2023-04-15T01:25:35;101207.58;;;10.20;81.13
33265;BME280;31404;53.974;-1.086;2023-04-15T01:30:35;101209.12;;;10.17;81.01
33265;BME280;31404;53.974;-1.086;2023-04-15T01:35:35;101212.92;;;9.29;84.05
33265;BME280;31404;53.974;-1.086;2023-04-15T01:40:35;101217.63;;;9.49;84.20
33265;BME280;31404;53.974;-1.086;2023-04-15T01:45:35;101227.04;;;9.16;84.43
33265;BME280;31404;53.974;-1.086;2023-04-15T01:50:35;101231.52;;;9.94;83.18
33265;BME280;31404;53.974;-1.086;2023-04-15T01:55:35;101238.73;;;9.81;83.89
33265;BME280;31404;53.974;-1.086;2023-04-15T02:00:35;101246.36;;;10.44;81.00
33265;BME280;31404;53.974;-1.086;2023-04-15T02:05:35;101253.51;;;10.57;79.86
33265;BME280;31404;53.974;-1.086;2023-04-15T02:10:35;101261.33;;;9.39;82.50
33265;BME280;31404;53.974;-1.086;2023-04-15T02:15:34;101267.86;;;10.01;81.66
33265;BME280;31404;53.974;-1.086;2023-04-15T02:20:35;101275.22;;;8.75;86.59
33265;BME280;31404;53.974;-1.086;2023-04-15T02:25:35;101289.56;;;5.66;100.00
33265;BME280;31404;53.974;-1.086;2023-04-15T02:30:35;101293.75;;;6.07;100.00
33265;BME280;31404;53.974;-1.086;2023-04-15T02:35:35;101298.12;;;7.50;96.16
33265;BME280;31404;53.974;-1.086;2023-04-15T02:40:35;101299.60;;;6.82;96.24
33265;BME280;31404;53.974;-1.086;2023-04-15T02:45:34;101306.17;;;8.37;90.18
33265;BME280;31404;53.974;-1.086;2023-04-15T02:50:35;101315.39;;;5.31;100.00
33265;BME280;31404;53.974;-1.086;2023-04-15T02:55:35;101313.80;;;7.43;94.23
33265;BME280;31404;53.974;-1.086;2023-04-15T03:00:35;101317.97;;;6.37;97.59
33265;BME280;31404;53.974;-1.086;2023-04-15T03:05:35;101328.62;;;7.78;92.34
33265;BME280;31404;53.974;-1.086;2023-04-15T03:10:35;101340.85;;;8.49;89.61
33265;BME280;31404;53.974;-1.086;2023-04-15T03:15:35;101356.13;;;7.52;93.31
33265;BME280;31404;53.974;-1.086;2023-04-15T03:20:35;101368.30;;;7.39;92.28
33265;BME280;31404;53.974;-1.086;2023-04-15T03:25:35;101376.20;;;6.97;94.48
33265;BME280;31404;53.974;-1.086;2023-04-15T03:30:35;101382.28;;;7.99;91.87
33265;BME280;31404;53.974;-1.086;2023-04-15T03:35:35;101387.71;;;7.41;95.02
33265;BME280;31404;53.974;-1.086;2023-04-15T03:40:35;101388.72;;;6.94;96.53
33265;BME280;31404;53.974;-1.086;2023-04-15T03:45:35;101394.93;;;6.60;98.61
33265;BME280;31404;53.974;-1.086;2023-04-15T03:50:35;101402.97;;;7.01;97.01
33265;BME280;31404;53.974;-1.086;2023-04-15T03:55:35;101404.14;;;7.99;92.59
33265;BME280;31404;53.974;-1.086;2023-04-15T04:00:35;101412.57;;;8.03;91.22
33265;BME280;31404;53.974;-1.086;2023-04-15T04:05:35;101414.90;;;7.01;95.14
33265;BME280;31404;53.974;-1.086;2023-04-15T04:10:37;101411.23;;;6.59;97.65
33265;BME280;31404;53.974;-1.086;2023-04-15T04:15:35;101416.89;;;6.43;98.15
33265;BME280;31404;53.974;-1.086;2023-04-15T04:20:35;101414.87;;;6.72;96.35
33265;BME280;31404;53.974;-1.086;2023-04-15T04:25:35;101414.68;;;7.54;93.82
33265;BME280;31404;53.974;-1.086;2023-04-15T04:30:35;101426.98;;;7.76;93.14
33265;BME280;31404;53.974;-1.086;2023-04-15T04:35:35;101430.76;;;7.31;93.69
33265;BME280;31404;53.974;-1.086;2023-04-15T04:40:34;101431.33;;;7.78;91.59
33265;BME280;31404;53.974;-1.086;2023-04-15T04:45:35;101435.62;;;6.92;93.58
33265;BME280;31404;53.974;-1.086;2023-04-15T04:50:35;101449.72;;;6.93;93.51
33265;BME280;31404;53.974;-1.086;2023-04-15T04:55:35;101459.50;;;6.31;95.38
33265;BME280;31404;53.974;-1.086;2023-04-15T05:00:35;101468.48;;;6.21;96.68
33265;BME280;31404;53.974;-1.086;2023-04-15T05:05:35;101480.07;;;6.87;93.40
33265;BME280;31404;53.974;-1.086;2023-04-15T05:10:35;101493.82;;;6.58;94.99
33265;BME280;31404;53.974;-1.086;2023-04-15T05:15:35;101494.38;;;5.87;97.04
33265;BME280;31404;53.974;-1.086;2023-04-15T05:20:34;101503.90;;;5.56;99.23
33265;BME280;31404;53.974;-1.086;2023-04-15T05:25:37;101514.72;;;5.75;98.63
33265;BME280;31404;53.974;-1.086;2023-04-15T05:30:36;101522.19;;;6.50;96.30
33265;BME280;31404;53.974;-1.086;2023-04-15T05:35:35;101530.47;;;5.90;98.27
33265;BME280;31404;53.974;-1.086;2023-04-15T05:40:36;101539.87;;;5.44;99.91
33265;BME280;31404;53.974;-1.086;2023-04-15T05:45:35;101550.68;;;5.05;100.00
33265;BME280;31404;53.974;-1.086;2023-04-15T05:50:36;101550.62;;;6.04;99.40
33265;BME280;31404;53.974;-1.086;2023-04-15T05:55:34;101562.00;;;6.12;96.31
33265;BME280;31404;53.974;-1.086;2023-04-15T06:00:35;101567.09;;;6.50;96.36
33265;BME280;31404;53.974;-1.086;2023-04-15T06:05:35;101580.97;;;6.38;96.56
33265;BME280;31404;53.974;-1.086;2023-04-15T06:10:35;101597.82;;;6.33;96.11
33265;BME280;31404;53.974;-1.086;2023-04-15T06:15:35;101617.87;;;5.31;100.00
33265;BME280;31404;53.974;-1.086;2023-04-15T06:20:35;101629.99;;;3.71;100.00
33265;BME280;31404;53.974;-1.086;2023-04-15T06:25:35;101631.72;;;5.62;100.00
33265;BME280;31404;53.974;-1.086;2023-04-15T06:30:35;101647.86;;;4.75;100.00
33265;BME280;31404;53.974;-1.086;2023-04-15T06:35:35;101659.64;;;6.30;100.00
33265;BME280;31404;53.974;-1.086;2023-04-15T06:40:35;101666.80;;;5.15;100.00
33265;BME280;31404;53.974;-1.086;2023-04-15T06:45:35;101675.94;;;6.67;100.00
33265;BME280;31404;53.974;-1.086;2023-04-15T06:50:35;101686.92;;;7.12;99.28
33265;BME280;31404;53.974;-1.086;2023-04-15T06:55:35;101703.79;;;6.37;100.00
33265;BME280;31404;53.974;-1.086;2023-04-15T07:00:35;101710.71;;;6.39;100.00
33265;BME280;31404;53.974;-1.086;2023-04-15T07:05:35;101721.25;;;5.92;100.00
33265;BME280;31404;53.974;-1.086;2023-04-15T07:10:35;101730.30;;;6.58;100.00
33265;BME280;31404;53.974;-1.086;2023-04-15T07:15:35;101738.37;;;7.13;96.76
33265;BME280;31404;53.974;-1.086;2023-04-15T07:20:35;101741.30;;;6.61;100.00
33265;BME280;31404;53.974;-1.086;2023-04-15T07:25:35;101747.30;;;7.01;98.17
33265;BME280;31404;53.974;-1.086;2023-04-15T07:30:35;101750.09;;;8.15;93.87
33265;BME280;31404;53.974;-1.086;2023-04-15T07:35:35;101752.59;;;9.33;89.90
33265;BME280;31404;53.974;-1.086;2023-04-15T07:40:35;101760.92;;;9.64;89.08
33265;BME280;31404;53.974;-1.086;2023-04-15T07:45:35;101766.71;;;9.50;88.60
33265;BME280;31404;53.974;-1.086;2023-04-15T07:50:35;101770.16;;;9.67;88.38
33265;BME280;31404;53.974;-1.086;2023-04-15T07:55:35;101774.45;;;9.99;87.49
33265;BME280;31404;53.974;-1.086;2023-04-15T08:00:35;101794.46;;;10.50;87.11
33265;BME280;31404;53.974;-1.086;2023-04-15T08:05:35;101812.66;;;10.23;86.70
33265;BME280;31404;53.974;-1.086;2023-04-15T08:10:34;101825.05;;;9.21;92.37
33265;BME280;31404;53.974;-1.086;2023-04-15T08:15:35;101825.57;;;10.62;86.47
33265;BME280;31404;53.974;-1.086;2023-04-15T08:20:35;101831.06;;;10.81;87.71
33265;BME280;31404;53.974;-1.086;2023-04-15T08:25:34;101842.43;;;11.36;84.16
33265;BME280;31404;53.974;-1.086;2023-04-15T08:30:35;101854.23;;;10.19;88.42
33265;BME280;31404;53.974;-1.086;2023-04-15T08:35:35;101864.04;;;11.12;85.02
33265;BME280;31404;53.974;-1.086;2023-04-15T08:45:37;101883.12;;;10.42;87.41
33265;BME280;31404;53.974;-1.086;2023-04-15T08:50:35;101899.59;;;10.99;84.37
33265;BME280;31404;53.974;-1.086;2023-04-15T08:55:39;101907.40;;;10.55;85.93
33265;BME280;31404;53.974;-1.086;2023-04-15T09:00:35;101911.16;;;10.74;84.93
33265;BME280;31404;53.974;-1.086;2023-04-15T09:05:36;101926.46;;;11.46;82.34
33265;BME280;31404;53.974;-1.086;2023-04-15T09:10:35;101931.27;;;11.01;83.02
33265;BME280;31404;53.974;-1.086;2023-04-15T09:15:37;101933.97;;;11.98;80.44
33265;BME280;31404;53.974;-1.086;2023-04-15T09:25:35;101946.57;;;11.74;81.37
33265;BME280;31404;53.974;-1.086;2023-04-15T09:30:34;101945.92;;;10.79;85.11
33265;BME280;31404;53.974;-1.086;2023-04-15T09:35:35;101950.94;;;10.49;87.14
33265;BME280;31404;53.974;-1.086;2023-04-15T09:40:37;101955.73;;;11.17;85.98
33265;BME280;31404;53.974;-1.086;2023-04-15T09:45:35;101961.29;;;11.22;85.63
33265;BME280;31404;53.974;-1.086;2023-04-15T09:55:34;101979.07;;;10.26;85.96
33265;BME280;31404;53.974;-1.086;2023-04-15T10:00:35;101981.45;;;10.70;88.23
33265;BME280;31404;53.974;-1.086;2023-04-15T10:05:34;101988.42;;;11.42;85.21
33265;BME280;31404;53.974;-1.086;2023-04-15T10:10:34;101995.75;;;12.17;83.14
33265;BME280;31404;53.974;-1.086;2023-04-15T10:15:36;102007.06;;;11.80;81.50
33265;BME280;31404;53.974;-1.086;2023-04-15T10:20:36;102010.85;;;11.93;83.42
33265;BME280;31404;53.974;-1.086;2023-04-15T10:25:35;102009.43;;;11.83;84.74
33265;BME280;31404;53.974;-1.086;2023-04-15T10:30:36;102012.73;;;11.06;84.73
33265;BME280;31404;53.974;-1.086;2023-04-15T10:35:35;102020.26;;;11.10;84.41
33265;BME280;31404;53.974;-1.086;2023-04-15T10:40:35;102019.08;;;11.59;84.28
33265;BME280;31404;53.974;-1.086;2023-04-15T10:45:36;102013.13;;;11.74;84.22
33265;BME280;31404;53.974;-1.086;2023-04-15T10:50:36;102021.47;;;11.01;86.75
33265;BME280;31404;53.974;-1.086;2023-04-15T10:55:35;102023.97;;;12.15;82.27
33265;BME280;31404;53.974;-1.086;2023-04-15T11:00:36;102024.75;;;11.31;83.64
33265;BME280;31404;53.974;-1.086;2023-04-15T11:15:36;102024.10;;;10.94;86.75
33265;BME280;31404;53.974;-1.086;2023-04-15T11:20:35;102024.20;;;11.13;85.78
33265;BME280;31404;53.974;-1.086;2023-04-15T11:25:35;102026.60;;;11.92;82.26
33265;BME280;31404;53.974;-1.086;2023-04-15T11:30:36;102030.04;;;11.27;82.79
33265;BME280;31404;53.974;-1.086;2023-04-15T11:35:35;102030.51;;;10.05;90.74
33265;BME280;31404;53.974;-1.086;2023-04-15T11:40:56;102021.34;;;11.08;88.90
33265;BME280;31404;53.974;-1.086;2023-04-15T11:45:35;102021.94;;;12.97;78.89
33265;BME280;31404;53.974;-1.086;2023-04-15T11:50:36;102029.41;;;12.56;80.21
33265;BME280;31404;53.974;-1.086;2023-04-15T12:00:35;102045.94;;;9.85;91.00
33265;BME280;31404;53.974;-1.086;2023-04-15T12:05:34;102051.54;;;9.19;99.56
33265;BME280;31404;53.974;-1.086;2023-04-15T12:10:35;102051.51;;;12.44;82.73
33265;BME280;31404;53.974;-1.086;2023-04-15T12:15:37;102055.06;;;13.30;78.24
33265;BME280;31404;53.974;-1.086;2023-04-15T12:25:35;102069.65;;;12.66;76.07
33265;BME280;31404;53.974;-1.086;2023-04-15T12:30:34;102064.24;;;13.42;72.13
33265;BME280;31404;53.974;-1.086;2023-04-15T12:35:35;102070.18;;;14.30;70.50
33265;BME280;31404;53.974;-1.086;2023-04-15T12:40:35;102080.93;;;12.50;69.80
33265;BME280;31404;53.974;-1.086;2023-04-15T12:45:35;102082.10;;;13.07;67.75
33265;BME280;31404;53.974;-1.086;2023-04-15T12:50:35;102086.20;;;11.58;75.68
33265;BME280;31404;53.974;-1.086;2023-04-15T12:55:35;102090.06;;;12.24;74.82
33265;BME280;31404;53.974;-1.086;2023-04-15T13:00:35;102088.54;;;12.94;69.59
33265;BME280;31404;53.974;-1.086;2023-04-15T13:05:35;102083.11;;;14.60;63.83
33265;BME280;31404;53.974;-1.086;2023-04-15T13:10:35;102095.45;;;12.44;73.41
33265;BME280;31404;53.974;-1.086;2023-04-15T13:15:35;102089.20;;;13.01;71.63
33265;BME280;31404;53.974;-1.086;2023-04-15T13:20:35;102088.37;;;14.06;68.76
33265;BME280;31404;53.974;-1.086;2023-04-15T13:25:35;102087.78;;;14.49;66.95
33265;BME280;31404;53.974;-1.086;2023-04-15T13:30:37;102091.21;;;13.94;61.67
33265;BME280;31404;53.974;-1.086;2023-04-15T13:35:35;102093.88;;;15.00;67.11
33265;BME280;31404;53.974;-1.086;2023-04-15T13:40:36;102098.28;;;16.59;59.18
33265;BME280;31404;53.974;-1.086;2023-04-15T13:45:34;102103.92;;;16.49;57.90
33265;BME280;31404;53.974;-1.086;2023-04-15T13:50:35;102108.47;;;14.09;62.50
33265;BME280;31404;53.974;-1.086;2023-04-15T13:55:35;102110.37;;;14.21;62.26
33265;BME280;31404;53.974;-1.086;2023-04-15T14:00:35;102124.05;;;10.41;74.12
33265;BME280;31404;53.974;-1.086;2023-04-15T14:05:35;102129.40;;;12.85;67.30
33265;BME280;31404;53.974;-1.086;2023-04-15T14:10:35;102126.02;;;14.37;61.43
33265;BME280;31404;53.974;-1.086;2023-04-15T14:15:35;102126.82;;;15.38;57.97
33265;BME280;31404;53.974;-1.086;2023-04-15T14:20:35;102132.83;;;15.43;57.64
33265;BME280;31404;53.974;-1.086;2023-04-15T14:25:35;102138.43;;;15.22;57.97
33265;BME280;31404;53.974;-1.086;2023-04-15T14:30:35;102141.14;;;15.29;59.24
33265;BME280;31404;53.974;-1.086;2023-04-15T14:35:35;102144.49;;;14.39;60.43
33265;BME280;31404;53.974;-1.086;2023-04-15T14:40:36;102147.05;;;13.63;61.90
33265;BME280;31404;53.974;-1.086;2023-04-15T14:45:36;102157.17;;;13.39;65.23
33265;BME280;31404;53.974;-1.086;2023-04-15T14:50:35;102159.47;;;12.55;64.04
33265;BME280;31404;53.974;-1.086;2023-04-15T14:55:35;102162.24;;;13.95;61.22
33265;BME280;31404;53.974;-1.086;2023-04-15T15:00:37;102160.67;;;13.92;63.01
33265;BME280;31404;53.974;-1.086;2023-04-15T15:05:35;102165.32;;;14.33;60.68
33265;BME280;31404;53.974;-1.086;2023-04-15T15:10:36;102168.88;;;15.04;61.39
33265;BME280;31404;53.974;-1.086;2023-04-15T15:15:36;102171.47;;;15.02;61.12
33265;BME280;31404;53.974;-1.086;2023-04-15T15:20:35;102183.73;;;13.12;62.79
33265;BME280;31404;53.974;-1.086;2023-04-15T15:25:35;102179.37;;;14.32;61.94
33265;BME280;31404;53.974;-1.086;2023-04-15T15:30:35;102177.29;;;14.28;63.05
33265;BME280;31404;53.974;-1.086;2023-04-15T15:35:35;102180.52;;;13.14;65.24
33265;BME280;31404;53.974;-1.086;2023-04-15T15:40:35;102177.74;;;13.82;63.71
33265;BME280;31404;53.974;-1.086;2023-04-15T15:45:35;102184.23;;;13.28;63.15
33265;BME280;31404;53.974;-1.086;2023-04-15T15:50:35;102186.63;;;13.00;64.19
33265;BME280;31404;53.974;-1.086;2023-04-15T15:55:36;102188.14;;;13.73;64.67
33265;BME280;31404;53.974;-1.086;2023-04-15T16:00:35;102185.52;;;14.26;62.32
33265;BME280;31404;53.974;-1.086;2023-04-15T16:05:37;102182.67;;;14.95;59.16
33265;BME280;31404;53.974;-1.086;2023-04-15T16:10:35;102177.91;;;15.31;57.12
33265;BME280;31404;53.974;-1.086;2023-04-15T16:15:35;102179.96;;;15.77;56.96
33265;BME280;31404;53.974;-1.086;2023-04-15T16:20:35;102186.58;;;14.93;56.91
33265;BME280;31404;53.974;-1.086;2023-04-15T16:25:35;102178.55;;;16.54;57.21
33265;BME280;31404;53.974;-1.086;2023-04-15T16:30:36;102185.76;;;16.06;61.16
33265;BME280;31404;53.974;-1.086;2023-04-15T16:35:35;102190.23;;;14.96;63.27
33265;BME280;31404;53.974;-1.086;2023-04-15T16:40:36;102188.09;;;14.41;64.94
33265;BME280;31404;53.974;-1.086;2023-04-15T16:45:35;102190.83;;;15.17;62.88
33265;BME280;31404;53.974;-1.086;2023-04-15T16:50:35;102196.41;;;15.01;61.74
33265;BME280;31404;53.974;-1.086;2023-04-15T16:55:34;102199.19;;;14.16;66.39
33265;BME280;31404;53.974;-1.086;2023-04-15T17:00:35;102201.96;;;13.48;68.16
33265;BME280;31404;53.974;-1.086;2023-04-15T17:05:35;102204.33;;;14.19;65.85
33265;BME280;31404;53.974;-1.086;2023-04-15T17:10:35;102209.27;;;14.35;64.88
33265;BME280;31404;53.974;-1.086;2023-04-15T17:15:34;102213.25;;;12.77;68.86
33265;BME280;31404;53.974;-1.086;2023-04-15T17:20:35;102216.02;;;13.23;67.55
33265;BME280;31404;53.974;-1.086;2023-04-15T17:25:36;102219.61;;;13.60;67.42
33265;BME280;31404;53.974;-1.086;2023-04-15T17:35:34;102222.52;;;12.98;69.74
33265;BME280;31404;53.974;-1.086;2023-04-15T17:40:35;102215.22;;;15.78;59.38
33265;BME280;31404;53.974;-1.086;2023-04-15T17:45:35;102226.52;;;11.20;75.34
33265;BME280;31404;53.974;-1.086;2023-04-15T17:50:35;102218.98;;;11.96;70.62
33265;BME280;31404;53.974;-1.086;2023-04-15T17:55:36;102227.38;;;10.64;75.46
33265;BME280;31404;53.974;-1.086;2023-04-15T18:05:35;102235.23;;;11.31;74.60
33265;BME280;31404;53.974;-1.086;2023-04-15T18:10:36;102236.13;;;12.24;71.75
33265;BME280;31404;53.974;-1.086;2023-04-15T18:15:34;102239.61;;;13.66;68.49
33265;BME280;31404;53.974;-1.086;2023-04-15T18:20:35;102246.01;;;13.26;69.49
33265;BME280;31404;53.974;-1.086;2023-04-15T18:25:35;102248.76;;;12.73;72.47
33265;BME280;31404;53.974;-1.086;2023-04-15T18:30:35;102252.48;;;13.10;71.36
33265;BME280;31404;53.974;-1.086;2023-04-15T18:35:35;102261.63;;;12.81;72.07
33265;BME280;31404;53.974;-1.086;2023-04-15T18:40:36;102265.39;;;13.06;71.27
33265;BME280;31404;53.974;-1.086;2023-04-15T18:45:35;102271.40;;;11.93;75.08
33265;BME280;31404;53.974;-1.086;2023-04-15T18:50:35;102280.23;;;13.37;69.91
33265;BME280;31404;53.974;-1.086;2023-04-15T18:55:35;102283.88;;;13.76;67.61
33265;BME280;31404;53.974;-1.086;2023-04-15T19:00:36;102292.01;;;13.11;68.41
33265;BME280;31404;53.974;-1.086;2023-04-15T19:05:35;102300.47;;;13.21;66.73
33265;BME280;31404;53.974;-1.086;2023-04-15T19:10:34;102308.80;;;12.80;67.82
33265;BME280;31404;53.974;-1.086;2023-04-15T19:15:34;102316.87;;;12.40;70.23
33265;BME280;31404;53.974;-1.086;2023-04-15T19:20:36;102320.44;;;11.94;73.01
33265;BME280;31404;53.974;-1.086;2023-04-15T19:25:36;102326.17;;;11.03;79.69
33265;BME280;31404;53.974;-1.086;2023-04-15T19:30:35;102330.71;;;11.93;76.94
33265;BME280;31404;53.974;-1.086;2023-04-15T19:35:35;102332.12;;;12.80;73.87
33265;BME280;31404;53.974;-1.086;2023-04-15T19:40:34;102341.38;;;10.96;81.79
33265;BME280;31404;53.974;-1.086;2023-04-15T19:45:35;102350.94;;;9.47;89.18
33265;BME280;31404;53.974;-1.086;2023-04-15T19:50:35;102355.35;;;11.09;83.50
33265;BME280;31404;53.974;-1.086;2023-04-15T19:55:36;102353.67;;;12.19;78.83
33265;BME280;31404;53.974;-1.086;2023-04-15T20:00:35;102364.48;;;9.73;89.83
33265;BME280;31404;53.974;-1.086;2023-04-15T20:05:35;102368.31;;;10.20;85.84
33265;BME280;31404;53.974;-1.086;2023-04-15T20:10:35;102377.88;;;10.14;87.66
33265;BME280;31404;53.974;-1.086;2023-04-15T20:15:35;102369.29;;;11.28;81.36
33265;BME280;31404;53.974;-1.086;2023-04-15T20:20:38;102372.79;;;10.88;83.20
33265;BME280;31404;53.974;-1.086;2023-04-15T20:25:35;102375.08;;;12.46;76.24
33265;BME280;31404;53.974;-1.086;2023-04-15T20:30:35;102376.89;;;11.23;80.93
33265;BME280;31404;53.974;-1.086;2023-04-15T20:35:35;102381.71;;;8.98;91.56
33265;BME280;31404;53.974;-1.086;2023-04-15T20:40:36;102387.94;;;9.57;88.41
33265;BME280;31404;53.974;-1.086;2023-04-15T20:45:35;102387.12;;;8.89;93.02
33265;BME280;31404;53.974;-1.086;2023-04-15T20:50:35;102388.38;;;8.91;91.83
33265;BME280;31404;53.974;-1.086;2023-04-15T20:55:35;102393.69;;;9.99;87.74
33265;BME280;31404;53.974;-1.086;2023-04-15T21:00:35;102389.62;;;8.48;93.02
33265;BME280;31404;53.974;-1.086;2023-04-15T21:05:35;102391.57;;;8.32;94.19
33265;BME280;31404;53.974;-1.086;2023-04-15T21:10:35;102391.86;;;8.53;95.23
33265;BME280;31404;53.974;-1.086;2023-04-15T21:15:35;102393.62;;;8.06;94.52
33265;BME280;31404;53.974;-1.086;2023-04-15T21:20:34;102391.85;;;8.32;91.56
33265;BME280;31404;53.974;-1.086;2023-04-15T21:25:34;102389.83;;;8.46;91.86
33265;BME280;31404;53.974;-1.086;2023-04-15T21:30:35;102398.65;;;7.66;95.58
33265;BME280;31404;53.974;-1.086;2023-04-15T21:35:35;102398.11;;;9.39;84.90
33265;BME280;31404;53.974;-1.086;2023-04-15T21:40:35;102403.25;;;10.11;80.75
33265;BME280;31404;53.974;-1.086;2023-04-15T21:45:35;102405.91;;;9.38;82.60
33265;BME280;31404;53.974;-1.086;2023-04-15T21:50:36;102410.79;;;10.04;79.21
33265;BME280;31404;53.974;-1.086;2023-04-15T21:55:35;102418.29;;;8.66;86.82
33265;BME280;31404;53.974;-1.086;2023-04-15T22:00:35;102415.14;;;8.95;84.53
33265;BME280;31404;53.974;-1.086;2023-04-15T22:05:35;102429.35;;;7.06;92.51
33265;BME280;31404;53.974;-1.086;2023-04-15T22:10:37;102431.22;;;7.10;94.14
33265;BME280;31404;53.974;-1.086;2023-04-15T22:15:36;102437.88;;;8.19;89.79
33265;BME280;31404;53.974;-1.086;2023-04-15T22:20:35;102441.33;;;8.49;88.23
33265;BME280;31404;53.974;-1.086;2023-04-15T22:25:36;102445.11;;;8.98;85.28
33265;BME280;31404;53.974;-1.086;2023-04-15T22:30:37;102449.00;;;7.18;93.79
33265;BME280;31404;53.974;-1.086;2023-04-15T22:35:35;102453.09;;;7.68;93.86
33265;BME280;31404;53.974;-1.086;2023-04-15T22:40:36;102454.90;;;8.19;89.57
33265;BME280;31404;53.974;-1.086;2023-04-15T22:45:35;102458.14;;;7.94;88.49
33265;BME280;31404;53.974;-1.086;2023-04-15T22:50:36;102467.53;;;7.99;87.31
33265;BME280;31404;53.974;-1.086;2023-04-15T22:55:35;102467.03;;;10.06;79.64
33265;BME280;31404;53.974;-1.086;2023-04-15T23:00:40;102463.14;;;10.13;79.51
33265;BME280;31404;53.974;-1.086;2023-04-15T23:05:36;102466.69;;;10.16;79.70
33265;BME280;31404;53.974;-1.086;2023-04-15T23:10:35;102469.91;;;9.11;83.05
33265;BME280;31404;53.974;-1.086;2023-04-15T23:15:35;102471.16;;;8.93;83.27
33265;BME280;31404;53.974;-1.086;2023-04-15T23:20:35;102475.70;;;7.19;96.89
33265;BME280;31404;53.974;-1.086;2023-04-15T23:25:35;102470.37;;;9.30;84.97
33265;BME280;31404;53.974;-1.086;2023-04-15T23:30:35;102479.50;;;5.91;100.00
33265;BME280;31404;53.974;-1.086;2023-04-15T23:35:35;102474.41;;;7.96;92.78
33265;BME280;31404;53.974;-1.086;2023-04-15T23:40:36;102478.82;;;7.96;91.83
33265;BME280;31404;53.974;-1.086;2023-04-15T23:45:35;102479.46;;;7.10;98.55
33265;BME280;31404;53.974;-1.086;2023-04-15T23:50:35;102474.23;;;8.54;91.14
33265;BME280;31404;53.974;-1.086;2023-04-15T23:55:35;102469.08;;;7.92;95.05
